Edith Weston, United Kingdom
Current Conditions -  °F | °C
As of 7:50 AM on Thursday 27 Nov 2014 (Local Time) from EGXT Reporting Station
Moderate Fog Moderate Fog  
Wind Chill: 44°   Ceiling: Unl
Heat Index: 46°   Visibility: 0.18mi
Dew Point: 46°   Wind: 5mph
Humidity: 100%   Direction: 50°NE
Pressure: 29.59"   Gusts: NA
Location:  52.64°N, 0.63°W
Report Text: EGXT 270750Z 05004KT 0300 FG VV/// 08/08 Q1002 RED
Loading
Personal Weather Stations






























Interactive Weather Map New forecast layout! Learn more

10-Day Weather Forecast

Advertisements
Track Severe Weather on mobile